Terminal Aerodrome Forecast
Issued by NWS

Home | Current Version | Previous Version | Text Only | Print | Product List | Glossary On
Versions: 1 2 3 4 5 6 7 8 9 10 11 12 13 14
509
FTUS42 KMLB 202336
TAFTIX
TAF
KTIX 202336Z 2100/2124 07011KT P6SM SCT025
     FM211400 08011KT P6SM SCT025 SCT040
     FM211800 06012G18KT P6SM SCT035 SCT050
      AMD NOT SKED 2101/2111=

USA.gov is the U.S. government's official web portal to all federal, state and local government web resources and services.